Main page
METAR-TAF:

METAR-TAF

Airports :

Strasbourg, France

Strasbourg Airport

latitude: 48-33N, longitude: 007-38E, elevation: 153 m

Current weather observation

The report was made 36 minutes ago, at 23:30 UTC
Wind 16 kt from the North/Northeast
Temperature 0°C
Humidity 59%
Pressure 1016 hPa
Visibility 10 km or more
Overcast at a height of 4500 ft

METAR: LFST 222330Z AUTO 03016KT 9999 OVC045 00/M07 Q1016 NOSIG

Time: 01:06 (00:06 UTC)

Forecast

The report was made 1 hour and 6 minutes ago, at 23:00 UTC
Forecast valid from 23 at 00 UTC to 23 at 24 UTC
Wind 15 kt from the North/Northeast with gusts up to 25 kt
Visibility 10 km or more
Broken clouds at a height of 4000 ft
Temporary
from 23 at 00 UTC to 23 at 08 UTC
Wind 14 kt from the North/Northeast
Temporary
from 23 at 17 UTC to 23 at 24 UTC
Wind 14 kt from the North/Northeast

TAF: LFST 222300Z 2300/2324 03015G25KT 9999 BKN040 TEMPO 2300/2308 03014KT TEMPO 2317/2324 03014KT

Weather observations and forecasts of more than 4000 airports (METAR and TAF reports).

The available stations are represented by yellow and red dots on the map.

Hover mouse over dot to see the name of the station.

Then click to see weather observations and forecasts.

To change the map : click on the green buttons with a black cross to zoom in, on the green button with a dash to zoom out, or on the green arrows for adjacent maps.


METAR-TAF: